createdAt,value
2019-03-27T00:00:09.490Z,102568.54
2019-03-27T00:02:38.031Z,102560.19
2019-03-27T00:05:06.698Z,102561.29
2019-03-27T00:07:35.152Z,102559.34
2019-03-27T00:10:05.543Z,102555.34
2019-03-27T00:12:34.051Z,102556.94
2019-03-27T00:15:12.801Z,102555.23
2019-03-27T00:17:32.716Z,102552.62
2019-03-27T00:20:01.198Z,102556.41
2019-03-27T00:22:29.655Z,102560.59
2019-03-27T00:24:58.127Z,102553.20
2019-03-27T00:27:26.651Z,102553.81
2019-03-27T00:29:55.105Z,102541.78
2019-03-27T00:32:23.572Z,102541.78
2019-03-27T00:34:52.067Z,102543.00
2019-03-27T00:37:20.534Z,102545.08
2019-03-27T00:39:48.986Z,102540.22
2019-03-27T00:42:17.960Z,102544.34
2019-03-27T00:44:46.412Z,102546.03
2019-03-27T00:47:14.870Z,102548.87
2019-03-27T00:49:43.394Z,102546.58
2019-03-27T00:52:11.856Z,102546.48
2019-03-27T00:54:40.405Z,102544.07
2019-03-27T00:57:08.889Z,102547.30
2019-03-27T00:59:37.363Z,102553.59
2019-03-27T01:02:05.827Z,102548.37
2019-03-27T01:04:34.336Z,102555.67
2019-03-27T01:07:03.196Z,102542.72
2019-03-27T01:09:31.643Z,102539.27
2019-03-27T01:12:00.156Z,102544.52
2019-03-27T01:14:28.613Z,102543.33
2019-03-27T01:16:57.226Z,102546.51
2019-03-27T01:19:25.712Z,102547.64
2019-03-27T01:21:54.180Z,102540.44
2019-03-27T01:24:22.636Z,102543.61
2019-03-27T01:26:51.135Z,102547.86
2019-03-27T01:29:19.605Z,102549.27
2019-03-27T01:31:48.058Z,102553.52
2019-03-27T01:34:16.573Z,102554.00
2019-03-27T01:36:45.030Z,102554.88
2019-03-27T01:39:13.483Z,102557.97
2019-03-27T01:41:41.996Z,102562.31
2019-03-27T01:44:10.448Z,102568.45
2019-03-27T01:46:38.912Z,102568.84
2019-03-27T01:49:07.432Z,102568.87
2019-03-27T01:51:35.885Z,102568.87
2019-03-27T01:54:04.365Z,102559.22
2019-03-27T01:56:32.861Z,102565.98
2019-03-27T01:59:01.325Z,102560.38
2019-03-27T02:01:29.788Z,102564.16
2019-03-27T02:03:58.273Z,102559.98
2019-03-27T02:06:26.727Z,102557.86
2019-03-27T02:08:55.309Z,102556.65
2019-03-27T02:11:23.811Z,102556.65
2019-03-27T02:13:52.264Z,102550.20
2019-03-27T02:16:20.718Z,102550.20
2019-03-27T02:18:49.234Z,102552.30
2019-03-27T02:21:17.706Z,102553.22
2019-03-27T02:23:46.178Z,102555.80
2019-03-27T02:26:14.677Z,102552.39
2019-03-27T02:28:43.127Z,102545.48
2019-03-27T02:31:11.604Z,102547.09
2019-03-27T02:33:40.110Z,102541.95
2019-03-27T02:36:08.557Z,102561.86
2019-03-27T02:38:37.041Z,102560.01
2019-03-27T02:41:05.518Z,102560.01
2019-03-27T02:43:33.952Z,102560.33
2019-03-27T02:46:02.414Z,102563.49
2019-03-27T02:48:30.899Z,102557.78
2019-03-27T02:50:59.369Z,102557.78
2019-03-27T02:53:27.812Z,102567.20
2019-03-27T02:55:56.319Z,102571.75
2019-03-27T02:58:24.782Z,102574.62
2019-03-27T03:00:53.239Z,102571.08
2019-03-27T03:03:21.736Z,102572.76
2019-03-27T03:05:50.199Z,102569.20
2019-03-27T03:08:18.653Z,102569.11
2019-03-27T03:10:47.920Z,102569.90
2019-03-27T03:13:16.360Z,102566.34
2019-03-27T03:15:44.967Z,102564.08
2019-03-27T03:18:13.449Z,102558.34
2019-03-27T03:20:41.921Z,102562.88
2019-03-27T03:23:10.377Z,102551.12
2019-03-27T03:25:38.853Z,102550.91
2019-03-27T03:28:07.314Z,102556.23
2019-03-27T03:30:35.792Z,102566.84
2019-03-27T03:33:04.292Z,102566.66
2019-03-27T03:35:32.801Z,102572.48
2019-03-27T03:38:01.250Z,102566.63
2019-03-27T03:40:29.735Z,102575.94
2019-03-27T03:42:58.205Z,102577.81
2019-03-27T03:45:26.669Z,102576.23
2019-03-27T03:47:55.165Z,102579.88
2019-03-27T03:50:26.795Z,102583.59
2019-03-27T03:52:55.270Z,102582.02
2019-03-27T03:55:23.911Z,102581.31
2019-03-27T03:57:52.437Z,102580.21
2019-03-27T04:00:20.884Z,102574.84
2019-03-27T04:02:49.943Z,102577.64
2019-03-27T04:05:21.820Z,102573.44
2019-03-27T04:07:50.277Z,102578.88
2019-03-27T04:10:18.781Z,102588.41
2019-03-27T04:12:47.284Z,102589.97
2019-03-27T04:15:15.749Z,102592.76
2019-03-27T04:17:44.283Z,102592.05
2019-03-27T04:20:12.784Z,102588.78
2019-03-27T04:22:41.239Z,102583.80
2019-03-27T04:25:09.747Z,102585.58
2019-03-27T04:27:38.199Z,102587.45
2019-03-27T04:30:07.344Z,102583.39
2019-03-27T04:32:35.784Z,102586.45
2019-03-27T04:35:05.179Z,102586.63
2019-03-27T04:37:33.634Z,102588.42
2019-03-27T04:40:02.142Z,102593.66
2019-03-27T04:42:30.595Z,102596.34
2019-03-27T04:44:59.047Z,102606.84
2019-03-27T04:47:32.501Z,102601.68
2019-03-27T04:49:57.743Z,102601.48
2019-03-27T04:52:26.183Z,102597.21
2019-03-27T04:54:54.672Z,102602.48
2019-03-27T04:57:23.152Z,102606.41
2019-03-27T04:59:51.580Z,102614.73
2019-03-27T05:02:20.076Z,102622.06
2019-03-27T05:04:48.810Z,102622.66
2019-03-27T05:07:17.257Z,102617.60
2019-03-27T05:09:45.785Z,102619.87
2019-03-27T05:12:14.241Z,102625.22
2019-03-27T05:14:43.851Z,102620.54
2019-03-27T05:17:12.326Z,102628.48
2019-03-27T05:19:40.785Z,102621.63
2019-03-27T05:22:09.244Z,102623.03
2019-03-27T05:24:37.749Z,102626.49
2019-03-27T05:27:06.219Z,102631.72
2019-03-27T05:29:34.664Z,102628.37
2019-03-27T05:32:03.159Z,102630.64
2019-03-27T05:34:31.619Z,102625.48
2019-03-27T05:37:00.141Z,102630.82
2019-03-27T05:39:28.637Z,102639.92
2019-03-27T05:41:57.105Z,102635.75
2019-03-27T05:44:25.567Z,102636.84
2019-03-27T05:46:54.054Z,102643.47
2019-03-27T05:49:22.569Z,102638.08
2019-03-27T05:51:51.045Z,102644.34
2019-03-27T05:54:19.532Z,102648.38
2019-03-27T05:56:48.003Z,102652.94
2019-03-27T05:59:16.453Z,102651.02
2019-03-27T06:01:44.949Z,102649.02
2019-03-27T06:04:13.401Z,102650.11
2019-03-27T06:06:41.856Z,102644.30
2019-03-27T06:09:10.380Z,102643.22
2019-03-27T06:11:38.817Z,102647.27
2019-03-27T06:14:07.273Z,102644.45
2019-03-27T06:16:35.898Z,102646.42
2019-03-27T06:19:04.366Z,102650.56
2019-03-27T06:21:32.833Z,102644.76
2019-03-27T06:24:01.408Z,102650.19
2019-03-27T06:26:29.910Z,102654.75
2019-03-27T06:28:58.349Z,102652.81
2019-03-27T06:31:26.817Z,102661.13
2019-03-27T06:33:55.325Z,102659.23
2019-03-27T06:36:23.811Z,102653.83
2019-03-27T06:38:52.377Z,102655.31
2019-03-27T06:41:20.865Z,102655.08
2019-03-27T06:43:49.320Z,102651.37
2019-03-27T06:46:17.822Z,102656.94
2019-03-27T06:48:46.319Z,102660.75
2019-03-27T06:51:14.851Z,102652.59
2019-03-27T06:53:43.340Z,102652.19
2019-03-27T06:56:13.429Z,102652.35
2019-03-27T06:58:53.851Z,102648.74
2019-03-27T07:01:12.115Z,102651.59
2019-03-27T07:03:40.576Z,102656.68
2019-03-27T07:06:09.056Z,102651.62
2019-03-27T07:08:37.546Z,102649.97
2019-03-27T07:11:06.026Z,102650.49
2019-03-27T07:13:34.469Z,102652.11
2019-03-27T07:16:02.991Z,102653.15
2019-03-27T07:18:40.152Z,102668.23
2019-03-27T07:21:02.640Z,102669.69
2019-03-27T07:23:31.127Z,102666.98
2019-03-27T07:25:59.572Z,102663.25
2019-03-27T07:28:28.048Z,102660.00
2019-03-27T07:30:56.568Z,102665.59
2019-03-27T07:33:25.022Z,102665.99
2019-03-27T07:35:53.489Z,102667.31
2019-03-27T07:38:21.958Z,102659.39
2019-03-27T07:40:50.416Z,102659.55
2019-03-27T07:43:18.931Z,102659.79
2019-03-27T07:45:47.414Z,102670.77
2019-03-27T07:48:15.881Z,102679.19
2019-03-27T07:50:44.333Z,102670.28
2019-03-27T07:53:12.840Z,102674.73
2019-03-27T07:55:41.319Z,102673.67
2019-03-27T07:58:09.772Z,102673.92
2019-03-27T08:00:38.262Z,102673.91
2019-03-27T08:03:06.715Z,102676.56
2019-03-27T08:05:35.169Z,102670.80
2019-03-27T08:08:03.659Z,102677.92
2019-03-27T08:10:32.112Z,102682.22
2019-03-27T08:13:00.581Z,102679.22
2019-03-27T08:15:29.078Z,102678.75
2019-03-27T08:17:57.532Z,102689.11
2019-03-27T08:20:26.132Z,102686.52
2019-03-27T08:22:54.624Z,102686.42
2019-03-27T08:25:23.090Z,102687.31
2019-03-27T08:27:51.551Z,102689.90
2019-03-27T08:30:20.180Z,102685.59
2019-03-27T08:32:48.632Z,102681.90
2019-03-27T08:35:17.161Z,102676.12
2019-03-27T08:37:46.032Z,102675.03
2019-03-27T08:40:14.969Z,102683.09
2019-03-27T08:42:43.589Z,102684.48
2019-03-27T08:45:12.510Z,102687.13
2019-03-27T08:47:41.004Z,102689.34
2019-03-27T08:50:10.371Z,102686.38
2019-03-27T08:52:38.876Z,102691.38
2019-03-27T08:55:07.687Z,102695.81
2019-03-27T08:57:36.318Z,102695.92
2019-03-27T09:00:10.062Z,102694.64
2019-03-27T09:02:38.575Z,102704.91
2019-03-27T09:05:08.091Z,102691.23
2019-03-27T09:07:36.672Z,102695.67
2019-03-27T09:10:10.394Z,102699.23
2019-03-27T09:12:39.623Z,102698.27
2019-03-27T09:15:09.295Z,102697.30
2019-03-27T09:17:37.762Z,102707.69
2019-03-27T09:20:07.091Z,102698.69
2019-03-27T09:22:35.815Z,102701.16
2019-03-27T09:25:05.998Z,102698.70
2019-03-27T09:27:34.455Z,102702.64
2019-03-27T09:30:05.777Z,102703.55
2019-03-27T09:32:35.930Z,102708.33
2019-03-27T09:35:07.695Z,102697.31
2019-03-27T09:37:36.224Z,102702.09
2019-03-27T09:40:07.524Z,102701.20
2019-03-27T09:42:37.793Z,102703.59
2019-03-27T09:45:09.583Z,102710.45
2019-03-27T09:47:38.222Z,102704.84
2019-03-27T09:50:06.893Z,102712.14
2019-03-27T09:52:35.426Z,102710.30
2019-03-27T09:55:05.423Z,102704.98
2019-03-27T09:57:33.909Z,102706.88
2019-03-27T10:00:02.377Z,102706.49
2019-03-27T10:02:30.845Z,102705.20
2019-03-27T10:04:59.331Z,102704.44
2019-03-27T10:07:27.785Z,102706.88
2019-03-27T10:09:56.248Z,102710.64
2019-03-27T10:12:24.758Z,102678.52
2019-03-27T10:14:53.187Z,102710.89
2019-03-27T10:17:21.627Z,102714.45
2019-03-27T10:20:02.754Z,102705.77
2019-03-27T10:22:20.320Z,102709.67
2019-03-27T10:24:48.894Z,102701.67
2019-03-27T10:27:17.409Z,102697.11
2019-03-27T10:29:45.866Z,102702.09
2019-03-27T10:32:14.321Z,102702.09
2019-03-27T10:34:42.835Z,102698.75
2019-03-27T10:37:11.304Z,102696.77
2019-03-27T10:39:39.770Z,102701.75
2019-03-27T10:42:08.273Z,102691.07
2019-03-27T10:44:36.731Z,102691.27
2019-03-27T10:47:05.185Z,102693.58
2019-03-27T10:49:34.533Z,102690.30
2019-03-27T10:52:03.792Z,102690.03
2019-03-27T10:54:32.236Z,102694.48
2019-03-27T10:57:00.767Z,102700.97
2019-03-27T10:59:29.240Z,102697.33
2019-03-27T11:01:57.723Z,102701.91
2019-03-27T11:04:26.204Z,102702.20
2019-03-27T11:06:54.690Z,102701.20
2019-03-27T11:09:23.140Z,102707.00
2019-03-27T11:11:51.625Z,102708.92
2019-03-27T11:14:20.095Z,102710.85
2019-03-27T11:16:48.635Z,102703.19
2019-03-27T11:19:17.140Z,102711.69
2019-03-27T11:21:45.593Z,102713.73
2019-03-27T11:24:14.054Z,102711.73
2019-03-27T11:26:42.699Z,102712.27
2019-03-27T11:29:11.140Z,102715.57
2019-03-27T11:31:39.682Z,102715.36
2019-03-27T11:34:08.198Z,102714.89
2019-03-27T11:36:36.665Z,102715.23
2019-03-27T11:39:08.311Z,102723.22
2019-03-27T11:41:36.792Z,102719.57
2019-03-27T11:44:05.434Z,102717.30
2019-03-27T11:46:33.883Z,102717.17
2019-03-27T11:49:02.381Z,102708.04
2019-03-27T11:51:30.858Z,102704.73
2019-03-27T11:53:59.311Z,102709.91
2019-03-27T11:56:27.839Z,102705.84
2019-03-27T11:58:56.351Z,102706.30
2019-03-27T12:01:24.821Z,102699.07
2019-03-27T12:03:54.239Z,102700.83
2019-03-27T12:06:22.865Z,102705.23
2019-03-27T12:08:51.346Z,102698.73
2019-03-27T12:11:19.881Z,102700.25
2019-03-27T12:13:48.795Z,102695.11
2019-03-27T12:16:17.270Z,102702.48
2019-03-27T12:18:45.751Z,102699.00
2019-03-27T12:21:14.658Z,102690.97
2019-03-27T12:23:43.131Z,102692.06
2019-03-27T12:26:11.724Z,102697.19
2019-03-27T12:28:41.198Z,102698.41
2019-03-27T12:31:09.670Z,102689.82
2019-03-27T12:33:38.121Z,102696.23
2019-03-27T12:36:06.587Z,102693.55
2019-03-27T12:38:35.082Z,102695.22
2019-03-27T12:41:03.551Z,102690.91
2019-03-27T12:43:32.017Z,102689.94
2019-03-27T12:46:00.555Z,102688.56
2019-03-27T12:48:29.009Z,102685.38
2019-03-27T12:50:57.477Z,102680.93
2019-03-27T12:53:25.975Z,102684.83
2019-03-27T12:55:54.439Z,102681.18
2019-03-27T12:58:22.892Z,102686.33
2019-03-27T13:00:51.378Z,102682.34
2019-03-27T13:03:21.436Z,102687.13
2019-03-27T13:05:49.888Z,102683.56
2019-03-27T13:08:18.396Z,102685.36
2019-03-27T13:10:46.859Z,102683.44
2019-03-27T13:13:15.325Z,102677.63
2019-03-27T13:15:43.973Z,102678.59
2019-03-27T13:18:12.470Z,102683.87
2019-03-27T13:20:40.959Z,102681.32
2019-03-27T13:23:09.483Z,102684.55
2019-03-27T13:25:37.957Z,102681.66
2019-03-27T13:28:06.520Z,102677.59
2019-03-27T13:30:35.158Z,102681.28
2019-03-27T13:33:03.663Z,102671.89
2019-03-27T13:35:32.129Z,102668.00
2019-03-27T13:38:00.650Z,102670.93
2019-03-27T13:40:29.133Z,102668.55
2019-03-27T13:42:57.623Z,102664.19
2019-03-27T13:45:27.072Z,102670.67
2019-03-27T13:47:55.572Z,102660.70
2019-03-27T13:50:24.199Z,102654.77
2019-03-27T13:52:52.717Z,102658.28
2019-03-27T13:55:21.176Z,102653.71
2019-03-27T13:57:49.640Z,102653.92
2019-03-27T14:00:18.539Z,102657.05
2019-03-27T14:02:47.008Z,102651.11
2019-03-27T14:05:15.846Z,102658.60
2019-03-27T14:07:44.468Z,102652.66
2019-03-27T14:10:13.437Z,102642.46
2019-03-27T14:12:41.929Z,102644.72
2019-03-27T14:15:11.063Z,102643.08
2019-03-27T14:17:39.987Z,102645.26
2019-03-27T14:20:09.304Z,102645.67
2019-03-27T14:22:37.849Z,102649.50
2019-03-27T14:25:10.194Z,102643.00
2019-03-27T14:27:38.678Z,102645.14
2019-03-27T14:30:10.027Z,102642.42
2019-03-27T14:32:39.581Z,102644.09
2019-03-27T14:35:09.021Z,102642.42
2019-03-27T14:37:37.467Z,102644.25
2019-03-27T14:40:07.492Z,102638.42
2019-03-27T14:42:36.080Z,102648.94
2019-03-27T14:45:08.764Z,102645.04
2019-03-27T14:47:37.317Z,102648.94
2019-03-27T14:50:09.077Z,102646.68
2019-03-27T14:52:37.519Z,102650.45
2019-03-27T14:55:07.466Z,102661.48
2019-03-27T14:57:36.278Z,102660.73
2019-03-27T15:00:07.715Z,102671.77
2019-03-27T15:02:36.181Z,102666.70
2019-03-27T15:05:06.258Z,102668.21
2019-03-27T15:07:34.729Z,102671.89
2019-03-27T15:10:03.864Z,102665.15
2019-03-27T15:12:32.379Z,102671.35
2019-03-27T15:15:00.862Z,102672.39
2019-03-27T15:17:29.323Z,102673.48
2019-03-27T15:19:57.850Z,102669.03
2019-03-27T15:22:26.293Z,102668.91
2019-03-27T15:24:54.769Z,102677.91
2019-03-27T15:27:23.265Z,102675.18
2019-03-27T15:29:51.729Z,102672.84
2019-03-27T15:32:20.190Z,102675.80
2019-03-27T15:34:48.764Z,102668.67
2019-03-27T15:37:17.711Z,102672.85
2019-03-27T15:39:46.173Z,102669.63
2019-03-27T15:42:14.657Z,102667.70
2019-03-27T15:44:43.112Z,102670.57
2019-03-27T15:47:11.580Z,102664.41
2019-03-27T15:49:40.180Z,102661.73
2019-03-27T15:52:08.651Z,102662.66
2019-03-27T15:54:37.114Z,102660.44
2019-03-27T15:57:05.644Z,102658.27
2019-03-27T15:59:34.080Z,102663.03
2019-03-27T16:02:02.570Z,102659.01
2019-03-27T16:04:31.056Z,102655.12
2019-03-27T16:07:00.498Z,102651.17
2019-03-27T16:09:28.975Z,102656.36
2019-03-27T16:11:59.138Z,102651.97
2019-03-27T16:14:27.594Z,102650.26
2019-03-27T16:17:11.931Z,102650.63
2019-03-27T16:19:26.342Z,102655.81
2019-03-27T16:21:54.794Z,102657.91
2019-03-27T16:24:23.237Z,102663.51
2019-03-27T16:27:03.851Z,102666.57
2019-03-27T16:29:21.948Z,102666.98
2019-03-27T16:31:50.403Z,102662.21
2019-03-27T16:34:18.882Z,102664.80
2019-03-27T16:36:47.651Z,102663.92
2019-03-27T16:39:16.137Z,102659.53
2019-03-27T16:41:44.634Z,102657.27
2019-03-27T16:44:13.173Z,102660.66
2019-03-27T16:46:41.639Z,102657.09
2019-03-27T16:49:10.124Z,102654.45
2019-03-27T16:51:38.571Z,102652.98
2019-03-27T16:54:07.025Z,102655.11
2019-03-27T16:56:35.488Z,102655.53
2019-03-27T16:59:03.954Z,102657.57
2019-03-27T17:01:32.401Z,102658.36
2019-03-27T17:04:00.930Z,102655.30
2019-03-27T17:06:29.377Z,102657.02
2019-03-27T17:08:57.833Z,102656.60
2019-03-27T17:11:26.428Z,102659.66
2019-03-27T17:13:54.869Z,102659.66
2019-03-27T17:16:23.318Z,102662.67
2019-03-27T17:18:51.819Z,102664.84
2019-03-27T17:21:20.282Z,102664.47
2019-03-27T17:23:48.757Z,102664.80
2019-03-27T17:26:17.297Z,102664.37
2019-03-27T17:28:45.785Z,102670.78
2019-03-27T17:31:14.360Z,102669.84
2019-03-27T17:33:43.224Z,102668.05
2019-03-27T17:36:11.851Z,102668.38
2019-03-27T17:38:41.609Z,102671.33
2019-03-27T17:41:10.236Z,102676.52
2019-03-27T17:43:38.727Z,102676.84
2019-03-27T17:46:07.256Z,102677.64
2019-03-27T17:48:36.132Z,102678.47
2019-03-27T17:51:05.065Z,102676.67
2019-03-27T17:53:33.791Z,102680.56
2019-03-27T17:56:02.651Z,102682.27
2019-03-27T17:58:31.333Z,102685.27
2019-03-27T18:01:01.708Z,102685.19
2019-03-27T18:03:30.843Z,102686.84
2019-03-27T18:05:59.446Z,102688.94
2019-03-27T18:08:28.083Z,102684.58
2019-03-27T18:10:57.281Z,102691.47
2019-03-27T18:13:26.195Z,102692.77
2019-03-27T18:15:54.694Z,102697.95
2019-03-27T18:18:23.208Z,102696.25
2019-03-27T18:20:51.670Z,102702.22
2019-03-27T18:23:20.124Z,102700.05
2019-03-27T18:25:48.664Z,102696.10
2019-03-27T18:28:17.144Z,102701.28
2019-03-27T18:30:45.665Z,102698.69
2019-03-27T18:33:14.174Z,102700.31
2019-03-27T18:35:42.693Z,102701.94
2019-03-27T18:38:11.150Z,102703.65
2019-03-27T18:40:39.702Z,102704.85
2019-03-27T18:43:08.164Z,102703.09
2019-03-27T18:45:36.622Z,102707.30
2019-03-27T18:48:05.123Z,102705.13
2019-03-27T18:50:33.578Z,102706.33
2019-03-27T18:53:02.040Z,102708.45
2019-03-27T18:55:30.548Z,102707.16
2019-03-27T18:58:00.648Z,102709.66
2019-03-27T19:00:29.427Z,102717.44
2019-03-27T19:02:57.995Z,102715.67
2019-03-27T19:05:26.458Z,102716.55
2019-03-27T19:07:54.910Z,102715.67
2019-03-27T19:10:23.402Z,102722.15
2019-03-27T19:12:51.857Z,102722.62
2019-03-27T19:15:20.306Z,102726.50
2019-03-27T19:17:48.838Z,102723.50
2019-03-27T19:20:17.364Z,102724.80
2019-03-27T19:22:45.893Z,102732.10
2019-03-27T19:25:14.388Z,102727.33
2019-03-27T19:27:42.840Z,102731.59
2019-03-27T19:30:11.496Z,102730.80
2019-03-27T19:32:40.000Z,102727.80
2019-03-27T19:35:08.457Z,102731.27
2019-03-27T19:37:36.909Z,102731.69
2019-03-27T19:40:06.059Z,102730.89
2019-03-27T19:42:34.671Z,102731.78
2019-03-27T19:45:03.741Z,102733.08
2019-03-27T19:47:32.235Z,102733.55
2019-03-27T19:50:00.711Z,102737.43
2019-03-27T19:52:29.161Z,102729.66
2019-03-27T19:54:57.662Z,102737.43
2019-03-27T19:57:26.120Z,102733.55
2019-03-27T19:59:54.573Z,102728.77
2019-03-27T20:02:23.061Z,102730.53
2019-03-27T20:04:51.507Z,102732.66
2019-03-27T20:07:19.971Z,102729.19
2019-03-27T20:09:48.515Z,102723.50
2019-03-27T20:12:16.935Z,102725.30
2019-03-27T20:14:45.392Z,102724.80
2019-03-27T20:17:13.914Z,102726.09
2019-03-27T20:19:42.381Z,102724.47
2019-03-27T20:22:10.877Z,102726.65
2019-03-27T20:24:41.190Z,102717.58
2019-03-27T20:27:09.543Z,102723.68
2019-03-27T20:29:38.006Z,102718.50
2019-03-27T20:32:06.519Z,102721.97
2019-03-27T20:34:37.721Z,102713.78
2019-03-27T20:37:06.185Z,102715.49
2019-03-27T20:39:34.679Z,102716.38
2019-03-27T20:42:03.221Z,102718.50
2019-03-27T20:44:31.681Z,102723.68
2019-03-27T20:47:00.217Z,102733.12
2019-03-27T20:49:28.655Z,102718.97
2019-03-27T20:51:57.112Z,102719.38
2019-03-27T20:54:26.005Z,102717.20
2019-03-27T20:56:54.593Z,102723.27
2019-03-27T20:59:23.052Z,102725.86
2019-03-27T21:01:51.628Z,102728.03
2019-03-27T21:04:20.082Z,102731.92
2019-03-27T21:06:48.527Z,102728.45
2019-03-27T21:09:17.034Z,102727.95
2019-03-27T21:11:45.486Z,102730.16
2019-03-27T21:14:13.942Z,102730.95
2019-03-27T21:16:42.409Z,102730.53
2019-03-27T21:19:10.881Z,102728.45
2019-03-27T21:21:41.798Z,102729.66
2019-03-27T21:24:09.609Z,102737.02
2019-03-27T21:26:38.052Z,102737.38
2019-03-27T21:29:06.511Z,102736.88
2019-03-27T21:31:35.007Z,102738.58
2019-03-27T21:34:03.464Z,102738.49
2019-03-27T21:36:31.921Z,102742.37
2019-03-27T21:39:00.388Z,102743.11
2019-03-27T21:41:28.904Z,102752.69
2019-03-27T21:43:57.491Z,102753.89
2019-03-27T21:46:25.990Z,102755.66
2019-03-27T21:48:54.438Z,102756.07
2019-03-27T21:51:22.898Z,102759.48
2019-03-27T21:53:51.387Z,102769.44
2019-03-27T21:56:19.844Z,102761.58
2019-03-27T21:58:48.304Z,102769.70
2019-03-27T22:01:16.806Z,102765.82
2019-03-27T22:03:45.254Z,102771.00
2019-03-27T22:06:13.696Z,102767.02
2019-03-27T22:08:42.203Z,102731.59
2019-03-27T22:11:10.646Z,102768.32
2019-03-27T22:13:39.087Z,102767.91
2019-03-27T22:16:07.571Z,102762.31
2019-03-27T22:18:36.028Z,102766.20
2019-03-27T22:21:04.484Z,102768.32
2019-03-27T22:23:32.967Z,102760.55
2019-03-27T22:26:01.431Z,102761.75
2019-03-27T22:28:29.894Z,102761.69
2019-03-27T22:30:58.396Z,102767.34
2019-03-27T22:33:26.883Z,102766.55
2019-03-27T22:35:55.327Z,102763.55
2019-03-27T22:38:23.849Z,102763.23
2019-03-27T22:40:52.297Z,102765.46
2019-03-27T22:43:20.741Z,102760.28
2019-03-27T22:45:50.298Z,102761.20
2019-03-27T22:48:18.741Z,102764.67
2019-03-27T22:50:47.181Z,102765.87
2019-03-27T22:53:15.692Z,102774.53
2019-03-27T22:55:50.347Z,102775.83
2019-03-27T22:58:14.309Z,102775.83
2019-03-27T23:00:49.213Z,102772.36
2019-03-27T23:03:18.917Z,102775.27
2019-03-27T23:05:47.614Z,102772.62
2019-03-27T23:08:16.092Z,102778.95
2019-03-27T23:10:44.531Z,102779.73
2019-03-27T23:13:13.157Z,102775.37
2019-03-27T23:15:41.732Z,102780.47
2019-03-27T23:18:10.196Z,102782.09
2019-03-27T23:20:38.647Z,102782.44
2019-03-27T23:23:07.138Z,102783.64
2019-03-27T23:25:35.583Z,102792.23
2019-03-27T23:28:04.019Z,102789.23
2019-03-27T23:30:32.517Z,102788.26
2019-03-27T23:33:00.972Z,102791.27
2019-03-27T23:35:29.414Z,102793.44
2019-03-27T23:37:57.913Z,102788.67
2019-03-27T23:40:26.432Z,102793.03
2019-03-27T23:42:54.901Z,102791.64
2019-03-27T23:45:23.397Z,102788.11
2019-03-27T23:47:51.997Z,102790.19
2019-03-27T23:50:20.463Z,102792.31
2019-03-27T23:52:48.974Z,102793.52
2019-03-27T23:55:17.435Z,102792.95
2019-03-27T23:57:45.882Z,102796.27
